Flight Track Log - Related Links

Times and Time Zones

All times are in EDT time to prevent confusion due to time zone crossing. See the SWA3206 flight status page for this flight to view local times or setup timezone preferences in your user account.

Time Position Orientation Groundspeed Altitude Reporting Facility
EDT Latitude Longitude Course Direction KTS MPH feet Rate Location/Type
Mon 06:57:51 PM 32.7572 -117.3083 285° West 222 255 4,700  Level Los Angeles Center
Mon 06:58:53 PM 32.6919 -117.3103 181° South 253 291 7,800 3,339 Climbing Los Angeles Center
Mon 06:59:55 PM 32.6483 -117.2361 125° Southeast 272 313 11,600 3,629 Climbing Los Angeles Center
Mon 07:00:57 PM 32.6303 -117.1042 99° East 332 382 15,300 3,629 Climbing Los Angeles Center
Mon 07:01:59 PM 32.6117 -116.9831 100° East 362 417 19,100 3,339 Climbing Los Angeles Center
Mon 07:02:00 PM 32.6142 -116.8106 84° East  Level FlightAware Approximate
Mon 07:03:01 PM 32.6231 -116.8586 84° East 383 441 22,200  Level Los Angeles Center
Mon 07:04:03 PM 32.6344 -116.7297 84° East 394 453 23,400 2,177 Climbing Los Angeles Center
Mon 07:05:05 PM 32.6475 -116.6008 83° East 396 456 26,700 1,742 Climbing Los Angeles Center
Mon 07:06:07 PM 32.6619 -116.4497 83° East 391 450 27,000 145 Climbing Los Angeles Center
Mon 07:07:09 PM 32.6753 -116.3067 84° East 441 507 27,000  Level Los Angeles Center
Mon 07:08:11 PM 32.6889 -116.1614 84° East 449 517 27,000  Level Los Angeles Center
Mon 07:09:13 PM 32.7028 -116.0169 83° East 446 513 27,000  Level Los Angeles Center
Mon 07:10:15 PM 32.7161 -115.8711 84° East 447 514 27,000  Level Los Angeles Center
Mon 07:11:17 PM 32.7319 -115.6958 84° East 447 514 27,000  Level Los Angeles Center
Mon 07:12:19 PM 32.7458 -115.5486 84° East 449 517 27,000  Level Los Angeles Center
Mon 07:13:21 PM 32.7531 -115.4019 87° East 448 516 27,000  Level Los Angeles Center
Mon 07:14:23 PM 32.7550 -115.2539 89° East 449 517 27,000  Level Los Angeles Center
Mon 07:15:25 PM 32.7614 -115.1053 87° East 449 517 27,000  Level Los Angeles Center
Mon 07:16:27 PM 32.7642 -114.9267 89° East 451 519 27,000  Level Los Angeles Center
Mon 07:17:29 PM 32.7664 -114.7794 89° East 446 513 27,000  Level Los Angeles Center
Mon 07:18:30 PM 32.7694 -114.6319 89° East 447 514 27,000  Level Los Angeles Center
Mon 07:19:32 PM 32.7725 -114.4847 89° East 447 514 27,000  Level Los Angeles Center
Mon 07:20:34 PM 32.7739 -114.3378 89° East 447 514 27,000  Level Los Angeles Center
Mon 07:21:36 PM 32.7753 -114.1908 89° East 445 512 27,000 -828 Level Los Angeles Center
Mon 07:22:01 PM 32.7764 -114.1125 89° East 446 513 25,800 -1,465 Descending Albuquerque Center
Mon 07:23:02 PM 32.7775 -113.9678 89° East 440 506 24,900 -390 Descending Albuquerque Center
Mon 07:24:04 PM 32.7961 -113.8336 81° East 418 481 25,000 49 Climbing Albuquerque Center
Mon 07:25:05 PM 32.8167 -113.7014 79° East 409 471 25,000 -49 Level Albuquerque Center
Mon 07:26:07 PM 32.8836 -113.5958 53° Northeast 400 460 24,900 -49 Descending Albuquerque Center
Mon 07:27:08 PM 32.9583 -113.4975 48° Northeast 399 459 24,900 -1,122 Level Albuquerque Center
Mon 07:28:10 PM 33.0303 -113.3989 49° Northeast 395 455 22,600 -1,415 Descending Albuquerque Center
Mon 07:29:11 PM 33.1006 -113.3025 49° Northeast 387 445 22,000 -1,171 Descending Albuquerque Center
Mon 07:30:13 PM 33.1706 -113.2100 48° Northeast 378 435 20,200 -2,293 Descending Albuquerque Center
Mon 07:31:14 PM 33.2478 -113.1011 50° Northeast 363 418 17,300 -1,610 Descending Albuquerque Center
Mon 07:32:16 PM 33.2761 -112.9978 72° East 346 398 16,900 -390 Descending Albuquerque Center
Mon 07:33:17 PM 33.2786 -112.8847 88° East 341 392 16,500 -488 Descending Albuquerque Center
Mon 07:34:19 PM 33.2819 -112.7725 88° East 339 390 15,900 -293 Descending Albuquerque Center
Mon 07:35:20 PM 33.2844 -112.6514 89° East 354 407 15,900 -1,122 Level Albuquerque Center
Mon 07:36:22 PM 33.2881 -112.5144 88° East 372 428 13,600 -2,293 Descending Albuquerque Center
Mon 07:37:23 PM 33.2911 -112.3939 88° East 366 421 11,200 -1,610 Descending Albuquerque Center
Mon 07:38:25 PM 33.2967 -112.2756 87° East 360 414 10,300 -927 Descending Albuquerque Center
Mon 07:39:26 PM 33.3053 -112.1708 84° East 321 369 9,300 -829 Descending Albuquerque Center
Mon 07:40:28 PM 33.3156 -112.0764 83° East 292 336 8,600 -927 Descending Albuquerque Center
Mon 07:41:29 PM 33.3378 -111.9886 73° East 271 312 7,400 -1,073 Descending Albuquerque Center
Mon 07:42:31 PM 33.3461 -111.9078 83° East 256 295 6,400 -1,220 Descending Albuquerque Center
Mon 07:43:32 PM 33.3733 -111.8394 64° Northeast 216 249 4,900 -1,415 Descending Albuquerque Center
Mon 07:44:34 PM 33.4133 -111.8617 335° Northwest 202 232 3,500 -1,268 Descending Albuquerque Center
Mon 07:45:35 PM 33.4294 -111.9167 289° West 178 205 2,300 -927 Descending Albuquerque Center
Mon 07:46:37 PM 33.4319 -111.9647 274° West 146 168 1,600 -585 Descending Albuquerque Center
Mon 07:47:38 PM 33.4297 -112.0153 267° West 135 155 1,100 -492 Descending Albuquerque Center

Login

Don't have an account? Register now (free) for customized features, flight alerts, and more!